sensor_id;sensor_type;location;lat;lon;timestamp;pressure;altitude;pressure_sealevel;temperature;humidity
56811;BME280;42691;47.234;27.494;2022-10-04T00:01:21;99311.28;;;16.83;100.00
56811;BME280;42691;47.234;27.494;2022-10-04T00:04:00;99304.59;;;16.79;100.00
56811;BME280;42691;47.234;27.494;2022-10-04T00:06:28;99304.16;;;16.74;100.00
56811;BME280;42691;47.234;27.494;2022-10-04T00:09:00;99305.09;;;16.73;100.00
56811;BME280;42691;47.234;27.494;2022-10-04T00:11:35;99297.19;;;16.62;100.00
56811;BME280;42691;47.234;27.494;2022-10-04T00:14:08;99311.66;;;16.68;100.00
56811;BME280;42691;47.234;27.494;2022-10-04T00:16:39;99319.88;;;16.63;100.00
56811;BME280;42691;47.234;27.494;2022-10-04T00:24:25;99314.25;;;16.56;100.00
56811;BME280;42691;47.234;27.494;2022-10-04T00:29:30;99313.53;;;16.54;100.00
56811;BME280;42691;47.234;27.494;2022-10-04T00:34:50;99326.31;;;16.48;100.00
56811;BME280;42691;47.234;27.494;2022-10-04T00:37:18;99319.66;;;16.44;100.00
56811;BME280;42691;47.234;27.494;2022-10-04T00:40:10;99316.31;;;16.42;100.00
56811;BME280;42691;47.234;27.494;2022-10-04T00:45:15;99320.84;;;16.40;100.00
56811;BME280;42691;47.234;27.494;2022-10-04T00:50:28;99325.38;;;16.38;100.00
56811;BME280;42691;47.234;27.494;2022-10-04T00:52:59;99322.03;;;16.36;100.00
56811;BME280;42691;47.234;27.494;2022-10-04T00:55:40;99334.22;;;16.37;100.00
56811;BME280;42691;47.234;27.494;2022-10-04T00:58:22;99330.84;;;16.35;100.00
56811;BME280;42691;47.234;27.494;2022-10-04T01:00:51;99334.66;;;16.31;100.00
56811;BME280;42691;47.234;27.494;2022-10-04T01:03:28;99334.06;;;16.27;100.00
56811;BME280;42691;47.234;27.494;2022-10-04T01:06:00;99330.00;;;16.23;100.00
56811;BME280;42691;47.234;27.494;2022-10-04T01:11:06;99337.63;;;16.26;100.00
56811;BME280;42691;47.234;27.494;2022-10-04T01:13:40;99329.88;;;16.24;100.00
56811;BME280;42691;47.234;27.494;2022-10-04T01:16:13;99333.47;;;16.23;100.00
56811;BME280;42691;47.234;27.494;2022-10-04T01:18:39;99326.91;;;16.18;100.00
56811;BME280;42691;47.234;27.494;2022-10-04T01:21:27;99331.78;;;16.22;100.00
56811;BME280;42691;47.234;27.494;2022-10-04T01:31:32;99320.09;;;16.15;100.00
56811;BME280;42691;47.234;27.494;2022-10-04T01:33:59;99330.34;;;16.18;100.00
56811;BME280;42691;47.234;27.494;2022-10-04T01:36:26;99338.22;;;16.18;100.00
56811;BME280;42691;47.234;27.494;2022-10-04T01:38:52;99314.25;;;16.12;100.00
56811;BME280;42691;47.234;27.494;2022-10-04T01:41:28;99332.03;;;16.19;100.00
56811;BME280;42691;47.234;27.494;2022-10-04T01:43:59;99332.75;;;16.21;100.00
56811;BME280;42691;47.234;27.494;2022-10-04T01:46:33;99327.63;;;16.20;100.00
56811;BME280;42691;47.234;27.494;2022-10-04T01:49:03;99333.81;;;16.19;100.00
56811;BME280;42691;47.234;27.494;2022-10-04T01:51:40;99330.34;;;16.18;100.00
56811;BME280;42691;47.234;27.494;2022-10-04T01:54:17;99335.72;;;16.17;100.00
56811;BME280;42691;47.234;27.494;2022-10-04T01:56:52;99335.84;;;16.15;100.00
56811;BME280;42691;47.234;27.494;2022-10-04T01:59:36;99340.13;;;16.16;100.00
56811;BME280;42691;47.234;27.494;2022-10-04T02:02:14;99335.84;;;16.15;100.00
56811;BME280;42691;47.234;27.494;2022-10-04T02:04:44;99301.81;;;15.91;100.00
56811;BME280;42691;47.234;27.494;2022-10-04T02:07:14;99340.38;;;16.13;100.00
56811;BME280;42691;47.234;27.494;2022-10-04T02:09:43;99344.78;;;16.13;100.00
56811;BME280;42691;47.234;27.494;2022-10-04T02:12:15;99343.94;;;16.12;100.00
56811;BME280;42691;47.234;27.494;2022-10-04T02:14:49;99339.78;;;16.10;100.00
56811;BME280;42691;47.234;27.494;2022-10-04T02:17:23;99339.53;;;16.13;100.00
56811;BME280;42691;47.234;27.494;2022-10-04T02:19:53;99347.19;;;16.16;100.00
56811;BME280;42691;47.234;27.494;2022-10-04T02:22:19;99337.28;;;16.08;100.00
56811;BME280;42691;47.234;27.494;2022-10-04T02:24:48;99344.44;;;16.17;100.00
56811;BME280;42691;47.234;27.494;2022-10-04T02:27:14;99343.47;;;16.18;100.00
56811;BME280;42691;47.234;27.494;2022-10-04T02:29:40;99344.44;;;16.17;100.00
56811;BME280;42691;47.234;27.494;2022-10-04T02:32:07;99344.66;;;16.14;100.00
56811;BME280;42691;47.234;27.494;2022-10-04T02:34:52;99308.47;;;15.95;100.00
56811;BME280;42691;47.234;27.494;2022-10-04T02:37:21;99351.34;;;16.18;100.00
56811;BME280;42691;47.234;27.494;2022-10-04T02:40:03;99349.44;;;16.20;100.00
56811;BME280;42691;47.234;27.494;2022-10-04T02:45:19;99356.38;;;16.21;100.00
56811;BME280;42691;47.234;27.494;2022-10-04T02:47:53;99367.69;;;16.22;100.00
56811;BME280;42691;47.234;27.494;2022-10-04T02:50:32;99369.50;;;16.21;100.00
56811;BME280;42691;47.234;27.494;2022-10-04T02:53:17;99372.22;;;16.20;100.00
56811;BME280;42691;47.234;27.494;2022-10-04T02:55:44;99368.06;;;16.17;100.00
56811;BME280;42691;47.234;27.494;2022-10-04T02:58:14;99370.69;;;16.17;100.00
56811;BME280;42691;47.234;27.494;2022-10-04T03:00:50;99382.13;;;16.16;100.00
56811;BME280;42691;47.234;27.494;2022-10-04T03:03:18;99381.19;;;16.17;100.00
56811;BME280;42691;47.234;27.494;2022-10-04T03:06:09;99381.88;;;16.19;100.00
56811;BME280;42691;47.234;27.494;2022-10-04T03:11:12;99382.00;;;16.18;100.00
56811;BME280;42691;47.234;27.494;2022-10-04T03:13:44;99386.44;;;16.17;100.00
56811;BME280;42691;47.234;27.494;2022-10-04T03:16:11;99390.84;;;16.17;100.00
56811;BME280;42691;47.234;27.494;2022-10-04T03:18:38;99382.38;;;16.13;100.00
56811;BME280;42691;47.234;27.494;2022-10-04T03:21:06;99385.59;;;16.17;100.00
56811;BME280;42691;47.234;27.494;2022-10-04T03:23:32;99384.16;;;16.13;100.00
56811;BME280;42691;47.234;27.494;2022-10-04T03:28:36;99389.16;;;16.16;100.00
56811;BME280;42691;47.234;27.494;2022-10-04T03:31:02;99395.47;;;16.13;100.00
56811;BME280;42691;47.234;27.494;2022-10-04T03:33:28;99391.19;;;16.12;100.00
56811;BME280;42691;47.234;27.494;2022-10-04T03:35:57;99397.38;;;16.11;100.00
56811;BME280;42691;47.234;27.494;2022-10-04T03:38:25;99396.91;;;16.06;100.00
56811;BME280;42691;47.234;27.494;2022-10-04T03:40:56;99391.47;;;15.97;100.00
56811;BME280;42691;47.234;27.494;2022-10-04T03:43:30;99376.31;;;15.89;100.00
56811;BME280;42691;47.234;27.494;2022-10-04T03:46:00;99396.53;;;16.00;100.00
56811;BME280;42691;47.234;27.494;2022-10-04T03:48:47;99400.00;;;16.00;100.00
56811;BME280;42691;47.234;27.494;2022-10-04T03:51:23;99394.75;;;16.00;100.00
56811;BME280;42691;47.234;27.494;2022-10-04T03:53:57;99393.28;;;15.96;100.00
56811;BME280;42691;47.234;27.494;2022-10-04T03:56:32;99405.84;;;16.04;100.00
56811;BME280;42691;47.234;27.494;2022-10-04T03:59:03;99418.97;;;16.04;100.00
56811;BME280;42691;47.234;27.494;2022-10-04T04:01:45;99416.56;;;16.01;100.00
56811;BME280;42691;47.234;27.494;2022-10-04T04:07:04;99407.22;;;15.97;100.00
56811;BME280;42691;47.234;27.494;2022-10-04T04:09:43;99429.81;;;15.99;100.00
56811;BME280;42691;47.234;27.494;2022-10-04T04:12:23;99423.81;;;15.97;100.00
56811;BME280;42691;47.234;27.494;2022-10-04T04:14:51;99426.44;;;15.97;100.00
56811;BME280;42691;47.234;27.494;2022-10-04T04:19:57;99368.28;;;15.55;100.00
56811;BME280;42691;47.234;27.494;2022-10-04T04:22:24;99419.25;;;15.88;100.00
56811;BME280;42691;47.234;27.494;2022-10-04T04:24:57;99437.16;;;15.94;100.00
56811;BME280;42691;47.234;27.494;2022-10-04T04:27:24;99445.03;;;15.94;100.00
56811;BME280;42691;47.234;27.494;2022-10-04T04:29:53;99441.69;;;15.92;100.00
56811;BME280;42691;47.234;27.494;2022-10-04T04:32:25;99443.34;;;15.93;100.00
56811;BME280;42691;47.234;27.494;2022-10-04T04:34:59;99444.28;;;15.92;100.00
56811;BME280;42691;47.234;27.494;2022-10-04T04:37:34;99451.09;;;15.94;100.00
56811;BME280;42691;47.234;27.494;2022-10-04T04:40:18;99452.06;;;15.93;100.00
56811;BME280;42691;47.234;27.494;2022-10-04T04:42:45;99452.88;;;15.94;100.00
56811;BME280;42691;47.234;27.494;2022-10-04T04:47:41;99462.00;;;16.01;100.00
56811;BME280;42691;47.234;27.494;2022-10-04T04:50:15;99470.06;;;15.98;100.00
56811;BME280;42691;47.234;27.494;2022-10-04T04:52:51;99471.13;;;15.95;100.00
56811;BME280;42691;47.234;27.494;2022-10-04T04:55:31;99477.22;;;15.96;100.00
56811;BME280;42691;47.234;27.494;2022-10-04T04:57:58;99470.31;;;15.95;100.00
56811;BME280;42691;47.234;27.494;2022-10-04T05:00:29;99483.94;;;16.00;100.00
56811;BME280;42691;47.234;27.494;2022-10-04T05:02:58;99480.38;;;16.01;100.00
56811;BME280;42691;47.234;27.494;2022-10-04T05:05:25;99484.94;;;16.10;100.00
56811;BME280;42691;47.234;27.494;2022-10-04T05:13:40;99498.31;;;16.18;100.00
56811;BME280;42691;47.234;27.494;2022-10-04T05:16:40;99500.38;;;16.26;100.00
56811;BME280;42691;47.234;27.494;2022-10-04T05:19:19;99504.09;;;16.35;100.00
56811;BME280;42691;47.234;27.494;2022-10-04T05:21:49;99515.84;;;16.42;100.00
56811;BME280;42691;47.234;27.494;2022-10-04T05:24:31;99513.69;;;16.47;100.00
56811;BME280;42691;47.234;27.494;2022-10-04T05:27:26;99518.03;;;16.59;100.00
56811;BME280;42691;47.234;27.494;2022-10-04T05:30:48;99519.66;;;16.73;100.00
56811;BME280;42691;47.234;27.494;2022-10-04T05:32:58;99523.72;;;16.88;100.00
56811;BME280;42691;47.234;27.494;2022-10-04T05:35:26;99528.03;;;17.00;100.00
56811;BME280;42691;47.234;27.494;2022-10-04T05:40:55;99544.53;;;17.36;100.00
56811;BME280;42691;47.234;27.494;2022-10-04T05:43:31;99538.44;;;17.58;100.00
56811;BME280;42691;47.234;27.494;2022-10-04T05:48:45;99540.09;;;17.92;100.00
56811;BME280;42691;47.234;27.494;2022-10-04T05:51:27;99543.34;;;18.17;100.00
56811;BME280;42691;47.234;27.494;2022-10-04T05:53:56;99495.06;;;18.06;100.00
56811;BME280;42691;47.234;27.494;2022-10-04T06:02:31;99563.56;;;19.01;100.00
56811;BME280;42691;47.234;27.494;2022-10-04T06:24:19;99587.66;;;20.28;100.00
56811;BME280;42691;47.234;27.494;2022-10-04T06:26:51;99590.16;;;20.39;100.00
56811;BME280;42691;47.234;27.494;2022-10-04T06:29:39;99593.97;;;20.46;100.00
56811;BME280;42691;47.234;27.494;2022-10-04T06:40:30;99609.06;;;20.35;100.00
56811;BME280;42691;47.234;27.494;2022-10-04T06:48:42;99618.78;;;20.34;100.00
56811;BME280;42691;47.234;27.494;2022-10-04T07:00:28;99622.47;;;20.03;100.00
56811;BME280;42691;47.234;27.494;2022-10-04T07:05:53;99630.94;;;19.96;100.00
56811;BME280;42691;47.234;27.494;2022-10-04T07:11:11;99627.31;;;19.88;100.00
56811;BME280;42691;47.234;27.494;2022-10-04T07:14:02;99632.72;;;19.86;100.00
56811;BME280;42691;47.234;27.494;2022-10-04T07:16:57;99626.47;;;19.87;100.00
56811;BME280;42691;47.234;27.494;2022-10-04T07:19:30;99627.19;;;19.89;100.00
56811;BME280;42691;47.234;27.494;2022-10-04T07:27:07;99628.00;;;19.90;100.00
56811;BME280;42691;47.234;27.494;2022-10-04T07:29:39;99626.91;;;19.92;100.00
56811;BME280;42691;47.234;27.494;2022-10-04T07:32:14;99634.56;;;19.95;100.00
56811;BME280;42691;47.234;27.494;2022-10-04T07:37:43;99629.28;;;19.95;100.00
56811;BME280;42691;47.234;27.494;2022-10-04T07:43:32;99636.50;;;19.93;100.00
56811;BME280;42691;47.234;27.494;2022-10-04T07:46:12;99638.16;;;19.94;100.00
56811;BME280;42691;47.234;27.494;2022-10-04T07:48:41;99643.75;;;20.01;100.00
56811;BME280;42691;47.234;27.494;2022-10-04T07:51:26;99643.19;;;19.97;100.00
56811;BME280;42691;47.234;27.494;2022-10-04T07:54:07;99639.69;;;19.97;100.00
56811;BME280;42691;47.234;27.494;2022-10-04T07:56:40;99643.75;;;20.01;100.00
56811;BME280;42691;47.234;27.494;2022-10-04T08:02:30;99638.72;;;19.98;100.00
56811;BME280;42691;47.234;27.494;2022-10-04T08:15:58;99641.16;;;20.11;100.00
56811;BME280;42691;47.234;27.494;2022-10-04T08:18:39;99649.34;;;20.08;100.00
56811;BME280;42691;47.234;27.494;2022-10-04T08:21:13;99638.88;;;20.06;100.00
56811;BME280;42691;47.234;27.494;2022-10-04T08:24:14;99648.38;;;20.09;100.00
56811;BME280;42691;47.234;27.494;2022-10-04T08:29:39;99637.97;;;20.17;100.00
56811;BME280;42691;47.234;27.494;2022-10-04T08:46:49;99626.44;;;20.18;100.00
56811;BME280;42691;47.234;27.494;2022-10-04T08:57:49;99663.38;;;20.48;100.00
56811;BME280;42691;47.234;27.494;2022-10-04T09:16:40;99658.63;;;20.62;100.00
56811;BME280;42691;47.234;27.494;2022-10-04T09:19:22;99670.59;;;20.66;100.00
56811;BME280;42691;47.234;27.494;2022-10-04T09:39:09;99671.59;;;20.84;100.00
56811;BME280;42691;47.234;27.494;2022-10-04T09:44:44;99684.25;;;20.90;100.00
56811;BME280;42691;47.234;27.494;2022-10-04T09:47:29;99675.63;;;20.88;100.00
56811;BME280;42691;47.234;27.494;2022-10-04T10:00:25;99681.47;;;20.91;100.00
56811;BME280;42691;47.234;27.494;2022-10-04T10:08:56;99682.28;;;21.02;100.00
56811;BME280;42691;47.234;27.494;2022-10-04T10:17:39;99691.31;;;21.18;100.00
56811;BME280;42691;47.234;27.494;2022-10-04T10:34:55;99694.28;;;21.25;100.00
56811;BME280;42691;47.234;27.494;2022-10-04T10:48:32;99708.34;;;21.26;100.00
56811;BME280;42691;47.234;27.494;2022-10-04T10:51:14;99698.47;;;21.28;100.00
56811;BME280;42691;47.234;27.494;2022-10-04T11:02:29;99697.44;;;21.48;100.00
56811;BME280;42691;47.234;27.494;2022-10-04T11:19:42;99702.25;;;21.72;100.00
56811;BME280;42691;47.234;27.494;2022-10-04T11:25:23;99704.06;;;21.71;100.00
56811;BME280;42691;47.234;27.494;2022-10-04T11:28:10;99704.38;;;21.68;100.00
56811;BME280;42691;47.234;27.494;2022-10-04T11:36:14;99669.16;;;21.48;100.00
56811;BME280;42691;47.234;27.494;2022-10-04T11:42:18;99704.47;;;21.76;100.00
56811;BME280;42691;47.234;27.494;2022-10-04T11:48:07;99707.00;;;21.68;100.00
56811;BME280;42691;47.234;27.494;2022-10-04T11:56:23;99707.81;;;21.78;100.00
56811;BME280;42691;47.234;27.494;2022-10-04T12:10:37;99716.34;;;21.72;100.00
56811;BME280;42691;47.234;27.494;2022-10-04T12:13:34;99726.78;;;21.74;100.00
56811;BME280;42691;47.234;27.494;2022-10-04T12:32:09;99725.88;;;21.93;100.00
56811;BME280;42691;47.234;27.494;2022-10-04T12:42:48;99725.88;;;21.93;100.00
56811;BME280;42691;47.234;27.494;2022-10-04T12:45:42;99732.88;;;21.94;100.00
56811;BME280;42691;47.234;27.494;2022-10-04T12:48:19;99729.25;;;21.95;100.00
56811;BME280;42691;47.234;27.494;2022-10-04T12:51:36;99734.53;;;21.95;100.00
56811;BME280;42691;47.234;27.494;2022-10-04T12:54:33;99736.06;;;21.88;100.00
56811;BME280;42691;47.234;27.494;2022-10-04T13:05:50;99738.44;;;21.91;100.00
56811;BME280;42691;47.234;27.494;2022-10-04T13:19:23;99752.78;;;21.88;100.00
56811;BME280;42691;47.234;27.494;2022-10-04T13:28:22;99754.16;;;22.02;100.00
56811;BME280;42691;47.234;27.494;2022-10-04T13:39:28;99757.81;;;21.91;100.00
56811;BME280;42691;47.234;27.494;2022-10-04T13:42:03;99756.56;;;21.85;100.00
56811;BME280;42691;47.234;27.494;2022-10-04T13:59:30;99762.72;;;21.76;97.70
56811;BME280;42691;47.234;27.494;2022-10-04T14:16:09;99793.41;;;21.69;99.09
56811;BME280;42691;47.234;27.494;2022-10-04T14:35:53;99813.50;;;21.62;100.00
56811;BME280;42691;47.234;27.494;2022-10-04T14:38:36;99822.41;;;21.61;99.83
56811;BME280;42691;47.234;27.494;2022-10-04T14:41:37;99829.66;;;21.59;100.00
56811;BME280;42691;47.234;27.494;2022-10-04T14:49:47;99831.88;;;21.44;100.00
56811;BME280;42691;47.234;27.494;2022-10-04T14:52:29;99835.63;;;21.42;100.00
56811;BME280;42691;47.234;27.494;2022-10-04T15:05:41;99855.56;;;21.27;100.00
56811;BME280;42691;47.234;27.494;2022-10-04T15:10:37;99859.38;;;21.13;100.00
56811;BME280;42691;47.234;27.494;2022-10-04T15:23:51;99874.53;;;21.01;100.00
56811;BME280;42691;47.234;27.494;2022-10-04T15:37:37;99900.41;;;20.88;100.00
56811;BME280;42691;47.234;27.494;2022-10-04T16:06:27;99963.03;;;20.67;100.00
56811;BME280;42691;47.234;27.494;2022-10-04T16:09:09;99968.19;;;20.68;100.00
56811;BME280;42691;47.234;27.494;2022-10-04T16:11:58;99974.47;;;20.67;100.00
56811;BME280;42691;47.234;27.494;2022-10-04T16:22:34;99988.19;;;20.61;100.00
56811;BME280;42691;47.234;27.494;2022-10-04T16:30:22;99998.38;;;20.66;100.00
56811;BME280;42691;47.234;27.494;2022-10-04T16:33:21;99996.72;;;20.65;100.00
56811;BME280;42691;47.234;27.494;2022-10-04T16:38:32;100000.44;;;20.62;100.00
56811;BME280;42691;47.234;27.494;2022-10-04T16:41:12;100009.47;;;20.59;100.00
56811;BME280;42691;47.234;27.494;2022-10-04T16:43:50;100009.59;;;20.58;100.00
56811;BME280;42691;47.234;27.494;2022-10-04T16:46:24;100011.41;;;20.57;100.00
56811;BME280;42691;47.234;27.494;2022-10-04T16:49:14;100016.97;;;20.54;100.00
56811;BME280;42691;47.234;27.494;2022-10-04T16:52:19;100022.78;;;20.48;100.00
56811;BME280;42691;47.234;27.494;2022-10-04T16:57:29;100012.69;;;20.42;100.00
56811;BME280;42691;47.234;27.494;2022-10-04T16:59:58;100015.56;;;20.39;100.00
56811;BME280;42691;47.234;27.494;2022-10-04T17:05:44;100022.66;;;20.39;100.00
56811;BME280;42691;47.234;27.494;2022-10-04T17:16:03;100043.34;;;20.34;100.00
56811;BME280;42691;47.234;27.494;2022-10-04T17:21:39;100050.81;;;20.28;100.00
56811;BME280;42691;47.234;27.494;2022-10-04T17:46:03;100092.06;;;19.97;100.00
56811;BME280;42691;47.234;27.494;2022-10-04T17:51:48;100091.25;;;19.97;100.00
56811;BME280;42691;47.234;27.494;2022-10-04T17:54:41;100096.66;;;19.95;100.00
56811;BME280;42691;47.234;27.494;2022-10-04T18:00:12;100106.03;;;19.88;100.00
56811;BME280;42691;47.234;27.494;2022-10-04T18:03:01;100110.84;;;19.83;100.00
56811;BME280;42691;47.234;27.494;2022-10-04T18:05:46;100118.88;;;19.82;100.00
56811;BME280;42691;47.234;27.494;2022-10-04T18:08:19;100115.78;;;19.77;100.00
56811;BME280;42691;47.234;27.494;2022-10-04T18:10:56;100075.56;;;19.51;100.00
56811;BME280;42691;47.234;27.494;2022-10-04T18:13:49;100113.38;;;19.74;100.00
56811;BME280;42691;47.234;27.494;2022-10-04T18:16:22;100109.63;;;19.65;100.00
56811;BME280;42691;47.234;27.494;2022-10-04T18:18:50;100119.63;;;19.73;100.00
56811;BME280;42691;47.234;27.494;2022-10-04T18:21:27;100122.25;;;19.73;100.00
56811;BME280;42691;47.234;27.494;2022-10-04T18:27:01;100127.66;;;19.71;100.00
56811;BME280;42691;47.234;27.494;2022-10-04T18:29:43;100130.28;;;19.71;100.00
56811;BME280;42691;47.234;27.494;2022-10-04T18:34:54;100135.91;;;19.66;100.00
56811;BME280;42691;47.234;27.494;2022-10-04T18:37:31;100137.00;;;19.64;100.00
56811;BME280;42691;47.234;27.494;2022-10-04T18:40:26;100126.19;;;19.56;100.00
56811;BME280;42691;47.234;27.494;2022-10-04T18:42:58;100140.84;;;19.60;100.00
56811;BME280;42691;47.234;27.494;2022-10-04T18:45:32;100150.56;;;19.59;100.00
56811;BME280;42691;47.234;27.494;2022-10-04T18:48:05;100149.00;;;19.57;100.00
56811;BME280;42691;47.234;27.494;2022-10-04T18:50:39;100155.47;;;19.53;100.00
56811;BME280;42691;47.234;27.494;2022-10-04T18:56:03;100159.03;;;19.52;100.00
56811;BME280;42691;47.234;27.494;2022-10-04T19:01:53;100168.63;;;19.42;100.00
56811;BME280;42691;47.234;27.494;2022-10-04T19:10:10;100162.59;;;19.28;100.00
56811;BME280;42691;47.234;27.494;2022-10-04T19:21:18;100188.97;;;19.28;100.00
56811;BME280;42691;47.234;27.494;2022-10-04T19:31:57;100163.75;;;19.02;100.00
56811;BME280;42691;47.234;27.494;2022-10-04T19:35:01;100193.28;;;19.18;100.00
56811;BME280;42691;47.234;27.494;2022-10-04T19:37:34;100197.72;;;19.18;100.00
56811;BME280;42691;47.234;27.494;2022-10-04T19:43:16;100195.41;;;19.13;100.00
56811;BME280;42691;47.234;27.494;2022-10-04T19:48:49;100199.47;;;19.06;100.00
56811;BME280;42691;47.234;27.494;2022-10-04T19:51:16;100203.78;;;19.07;100.00
56811;BME280;42691;47.234;27.494;2022-10-04T19:53:45;100201.63;;;19.01;100.00
56811;BME280;42691;47.234;27.494;2022-10-04T19:56:20;100215.53;;;19.03;100.00
56811;BME280;42691;47.234;27.494;2022-10-04T19:59:05;100221.03;;;19.00;100.00
56811;BME280;42691;47.234;27.494;2022-10-04T20:01:34;100211.16;;;18.91;100.00
56811;BME280;42691;47.234;27.494;2022-10-04T20:04:03;100224.94;;;18.94;100.00
56811;BME280;42691;47.234;27.494;2022-10-04T20:06:54;100173.97;;;18.59;100.00
56811;BME280;42691;47.234;27.494;2022-10-04T20:12:03;100229.72;;;18.89;100.00
56811;BME280;42691;47.234;27.494;2022-10-04T20:29:59;100255.91;;;18.80;100.00
56811;BME280;42691;47.234;27.494;2022-10-04T20:34:57;100253.50;;;18.77;100.00
56811;BME280;42691;47.234;27.494;2022-10-04T20:45:47;100262.81;;;18.69;100.00
56811;BME280;42691;47.234;27.494;2022-10-04T20:48:32;100270.97;;;18.66;100.00
56811;BME280;42691;47.234;27.494;2022-10-04T20:51:06;100279.09;;;18.63;100.00
56811;BME280;42691;47.234;27.494;2022-10-04T20:53:33;100280.22;;;18.59;100.00
56811;BME280;42691;47.234;27.494;2022-10-04T20:56:21;100282.09;;;18.57;100.00
56811;BME280;42691;47.234;27.494;2022-10-04T20:58:55;100284.72;;;18.57;100.00
56811;BME280;42691;47.234;27.494;2022-10-04T21:01:32;100289.28;;;18.55;100.00
56811;BME280;42691;47.234;27.494;2022-10-04T21:06:55;100293.09;;;18.51;100.00
56811;BME280;42691;47.234;27.494;2022-10-04T21:09:21;100288.88;;;18.49;100.00
56811;BME280;42691;47.234;27.494;2022-10-04T21:11:51;100296.88;;;18.47;100.00
56811;BME280;42691;47.234;27.494;2022-10-04T21:14:27;100295.22;;;18.46;100.00
56811;BME280;42691;47.234;27.494;2022-10-04T21:16:54;100300.69;;;18.43;100.00
56811;BME280;42691;47.234;27.494;2022-10-04T21:22:06;100301.03;;;18.38;100.00
56811;BME280;42691;47.234;27.494;2022-10-04T21:24:52;100300.41;;;18.35;100.00
56811;BME280;42691;47.234;27.494;2022-10-04T21:27:32;100301.34;;;18.34;100.00
56811;BME280;42691;47.234;27.494;2022-10-04T21:29:59;100303.25;;;18.32;100.00
56811;BME280;42691;47.234;27.494;2022-10-04T21:32:25;100301.16;;;18.24;100.00
56811;BME280;42691;47.234;27.494;2022-10-04T21:34:52;100305.38;;;18.27;100.00
56811;BME280;42691;47.234;27.494;2022-10-04T21:37:18;100296.75;;;18.25;100.00
56811;BME280;42691;47.234;27.494;2022-10-04T21:39:44;100301.28;;;18.23;100.00
56811;BME280;42691;47.234;27.494;2022-10-04T21:42:09;100303.91;;;18.23;100.00
56811;BME280;42691;47.234;27.494;2022-10-04T21:44:35;100293.78;;;18.17;100.00
56811;BME280;42691;47.234;27.494;2022-10-04T21:47:01;100300.50;;;18.21;100.00
56811;BME280;42691;47.234;27.494;2022-10-04T21:49:26;100305.88;;;18.19;100.00
56811;BME280;42691;47.234;27.494;2022-10-04T21:51:52;100310.41;;;18.17;100.00
56811;BME280;42691;47.234;27.494;2022-10-04T21:54:17;100314.84;;;18.17;100.00
56811;BME280;42691;47.234;27.494;2022-10-04T21:56:43;100307.88;;;18.16;100.00
56811;BME280;42691;47.234;27.494;2022-10-04T21:59:08;100316.72;;;18.15;100.00
56811;BME280;42691;47.234;27.494;2022-10-04T22:01:34;100313.38;;;18.12;100.00
56811;BME280;42691;47.234;27.494;2022-10-04T22:03:59;100323.16;;;18.10;100.00
56811;BME280;42691;47.234;27.494;2022-10-04T22:06:25;100319.69;;;18.10;100.00
56811;BME280;42691;47.234;27.494;2022-10-04T22:08:50;100330.13;;;18.11;100.00
56811;BME280;42691;47.234;27.494;2022-10-04T22:11:16;100318.44;;;18.03;100.00
56811;BME280;42691;47.234;27.494;2022-10-04T22:13:42;100336.34;;;18.10;100.00
56811;BME280;42691;47.234;27.494;2022-10-04T22:16:09;100338.00;;;18.11;100.00
56811;BME280;42691;47.234;27.494;2022-10-04T22:18:34;100329.69;;;18.05;100.00
56811;BME280;42691;47.234;27.494;2022-10-04T22:21:00;100357.41;;;18.10;100.00
56811;BME280;42691;47.234;27.494;2022-10-04T22:23:28;100346.88;;;18.10;100.00
56811;BME280;42691;47.234;27.494;2022-10-04T22:25:57;100344.22;;;18.10;100.00
56811;BME280;42691;47.234;27.494;2022-10-04T22:28:24;100339.81;;;18.11;100.00
56811;BME280;42691;47.234;27.494;2022-10-04T22:30:50;100339.91;;;18.09;100.00
56811;BME280;42691;47.234;27.494;2022-10-04T22:33:37;100346.88;;;18.10;100.00
56811;BME280;42691;47.234;27.494;2022-10-04T22:41:28;100355.09;;;18.06;100.00
56811;BME280;42691;47.234;27.494;2022-10-04T22:43:56;100348.13;;;18.05;100.00
56811;BME280;42691;47.234;27.494;2022-10-04T22:46:24;100353.28;;;18.06;100.00
56811;BME280;42691;47.234;27.494;2022-10-04T22:48:52;100364.66;;;18.07;100.00
56811;BME280;42691;47.234;27.494;2022-10-04T22:51:18;100329.91;;;17.89;100.00
56811;BME280;42691;47.234;27.494;2022-10-04T22:53:45;100315.56;;;17.80;100.00
56811;BME280;42691;47.234;27.494;2022-10-04T22:56:12;100361.81;;;18.10;100.00
56811;BME280;42691;47.234;27.494;2022-10-04T22:58:39;100361.94;;;18.08;100.00
56811;BME280;42691;47.234;27.494;2022-10-04T23:01:16;100367.28;;;18.07;100.00
56811;BME280;42691;47.234;27.494;2022-10-04T23:03:47;100364.78;;;18.05;100.00
56811;BME280;42691;47.234;27.494;2022-10-04T23:06:13;100369.28;;;18.03;100.00
56811;BME280;42691;47.234;27.494;2022-10-04T23:08:42;100364.97;;;18.02;100.00
56811;BME280;42691;47.234;27.494;2022-10-04T23:11:08;100368.34;;;18.04;100.00
56811;BME280;42691;47.234;27.494;2022-10-04T23:13:35;100364.03;;;18.03;100.00
56811;BME280;42691;47.234;27.494;2022-10-04T23:16:09;100373.63;;;18.04;100.00
56811;BME280;42691;47.234;27.494;2022-10-04T23:18:35;100373.50;;;18.06;100.00
56811;BME280;42691;47.234;27.494;2022-10-04T23:21:01;100369.41;;;18.02;100.00
56811;BME280;42691;47.234;27.494;2022-10-04T23:23:29;100374.34;;;18.06;100.00